createdAt,value
2018-07-01T00:00:23.024Z,97861.91
2018-07-01T00:02:51.718Z,97861.97
2018-07-01T00:05:20.659Z,97863.09
2018-07-01T00:07:49.564Z,97861.55
2018-07-01T00:10:18.987Z,97862.70
2018-07-01T00:12:47.972Z,97864.18
2018-07-01T00:15:17.327Z,97865.98
2018-07-01T00:17:46.281Z,97866.42
2018-07-01T00:20:15.078Z,97867.45
2018-07-01T00:22:43.889Z,97869.52
2018-07-01T00:25:12.759Z,97870.52
2018-07-01T00:27:42.352Z,97871.77
2018-07-01T00:30:11.969Z,97873.83
2018-07-01T00:32:40.791Z,97870.75
2018-07-01T00:35:09.713Z,97871.09
2018-07-01T00:37:39.333Z,97875.30
2018-07-01T00:40:08.500Z,97877.80
2018-07-01T00:42:37.603Z,97883.84
2018-07-01T00:45:06.944Z,97878.04
2018-07-01T00:47:35.550Z,97878.38
2018-07-01T00:50:05.738Z,97880.19
2018-07-01T00:52:34.573Z,97876.55
2018-07-01T00:55:03.759Z,97876.10
2018-07-01T00:57:32.560Z,97881.21
2018-07-01T01:00:01.294Z,97875.64
2018-07-01T01:02:29.888Z,97877.33
2018-07-01T01:04:58.833Z,97873.59
2018-07-01T01:07:28.255Z,97878.59
2018-07-01T01:09:57.090Z,97875.61
2018-07-01T01:12:25.730Z,97877.42
2018-07-01T01:14:54.595Z,97875.11
2018-07-01T01:17:23.399Z,97879.45
2018-07-01T01:19:52.163Z,97883.03
2018-07-01T01:22:21.229Z,97879.78
2018-07-01T01:24:49.958Z,97877.55
2018-07-01T01:27:18.814Z,97882.91
2018-07-01T01:29:47.864Z,97880.36
2018-07-01T01:32:16.560Z,97884.16
2018-07-01T01:34:45.432Z,97890.77
2018-07-01T01:37:14.742Z,97891.30
2018-07-01T01:39:45.072Z,97887.17
2018-07-01T01:42:19.074Z,97890.09
2018-07-01T01:45:24.970Z,97892.25
2018-07-01T01:47:57.065Z,97896.26
2018-07-01T01:50:32.228Z,97895.95
2018-07-01T01:53:07.765Z,97892.89
2018-07-01T01:55:41.817Z,97889.73
2018-07-01T01:58:15.128Z,97891.34
2018-07-01T02:00:48.612Z,97894.48
2018-07-01T02:03:38.927Z,97890.50
2018-07-01T02:06:13.608Z,97893.80
2018-07-01T02:08:45.844Z,97885.73
2018-07-01T02:11:14.762Z,97888.88
2018-07-01T02:13:46.684Z,97891.55
2018-07-01T02:16:23.984Z,97893.98
2018-07-01T02:18:52.648Z,97891.91
2018-07-01T02:21:21.534Z,97892.58
2018-07-01T02:23:53.870Z,97886.59
2018-07-01T02:26:22.948Z,97894.95
2018-07-01T02:28:51.884Z,97886.41
2018-07-01T02:31:20.764Z,97893.31
2018-07-01T02:33:49.454Z,97892.07
2018-07-01T02:36:18.108Z,97892.48
2018-07-01T02:38:46.859Z,97897.83
2018-07-01T02:41:16.292Z,97889.85
2018-07-01T02:43:45.259Z,97900.00
2018-07-01T02:46:13.893Z,97898.66
2018-07-01T02:48:42.563Z,97901.33
2018-07-01T02:51:11.192Z,97905.73
2018-07-01T02:53:40.103Z,97905.48
2018-07-01T02:56:09.013Z,97906.92
2018-07-01T02:58:38.029Z,97904.95
2018-07-01T03:01:07.265Z,97902.86
2018-07-01T03:03:36.220Z,97906.21
2018-07-01T03:06:04.820Z,97908.60
2018-07-01T03:08:34.168Z,97899.83
2018-07-01T03:11:02.823Z,97903.42
2018-07-01T03:13:31.498Z,97899.58
2018-07-01T03:16:04.094Z,97896.94
2018-07-01T03:18:35.788Z,97899.24
2018-07-01T03:21:08.386Z,97903.55
2018-07-01T03:23:39.237Z,97901.08
2018-07-01T03:26:11.198Z,97905.37
2018-07-01T03:28:41.675Z,97901.55
2018-07-01T03:31:13.183Z,97902.44
2018-07-01T03:33:44.294Z,97909.62
2018-07-01T03:36:17.203Z,97912.56
2018-07-01T03:38:46.274Z,97913.22
2018-07-01T03:41:15.263Z,97919.66
2018-07-01T03:43:44.124Z,97917.58
2018-07-01T03:46:12.705Z,97924.14
2018-07-01T03:48:41.439Z,97923.48
2018-07-01T03:51:10.843Z,97923.75
2018-07-01T03:53:39.504Z,97921.36
2018-07-01T03:56:08.607Z,97921.92
2018-07-01T03:58:37.377Z,97925.59
2018-07-01T04:01:06.217Z,97926.14
2018-07-01T04:03:35.073Z,97928.27
2018-07-01T04:06:05.681Z,97922.50
2018-07-01T04:08:34.952Z,97918.60
2018-07-01T04:11:04.159Z,97916.02
2018-07-01T04:13:33.368Z,97922.73
2018-07-01T04:16:02.059Z,97923.20
2018-07-01T04:18:30.783Z,97927.43
2018-07-01T04:21:00.070Z,97924.85
2018-07-01T04:23:29.112Z,97930.05
2018-07-01T04:25:57.708Z,97931.69
2018-07-01T04:28:27.586Z,97920.14
2018-07-01T04:30:57.158Z,97925.72
2018-07-01T04:33:26.288Z,97923.60
2018-07-01T04:35:55.447Z,97922.78
2018-07-01T04:38:24.389Z,97930.44
2018-07-01T04:40:53.295Z,97937.80
2018-07-01T04:43:21.983Z,97935.44
2018-07-01T04:45:51.063Z,97930.31
2018-07-01T04:48:20.103Z,97939.94
2018-07-01T04:50:48.815Z,97945.70
2018-07-01T04:53:17.823Z,97941.45
2018-07-01T04:55:46.646Z,97946.07
2018-07-01T04:58:15.409Z,97948.44
2018-07-01T05:00:44.165Z,97943.27
2018-07-01T05:03:13.201Z,97953.34
2018-07-01T05:05:42.029Z,97950.77
2018-07-01T05:08:11.005Z,97952.95
2018-07-01T05:10:39.738Z,97953.42
2018-07-01T05:13:08.683Z,97955.48
2018-07-01T05:15:38.049Z,97955.16
2018-07-01T05:18:07.109Z,97955.89
2018-07-01T05:20:36.789Z,97955.28
2018-07-01T05:23:06.630Z,97957.85
2018-07-01T05:25:35.895Z,97963.99
2018-07-01T05:28:04.833Z,97962.47
2018-07-01T05:30:33.671Z,97957.33
2018-07-01T05:33:02.381Z,97961.08
2018-07-01T05:35:31.045Z,97958.12
2018-07-01T05:37:59.660Z,97965.45
2018-07-01T05:40:28.400Z,97966.37
2018-07-01T05:42:57.224Z,97962.97
2018-07-01T05:45:26.011Z,97960.17
2018-07-01T05:47:55.974Z,97957.75
2018-07-01T05:50:25.156Z,97959.17
2018-07-01T05:52:54.369Z,97957.59
2018-07-01T05:55:23.713Z,97958.80
2018-07-01T05:57:52.708Z,97954.77
2018-07-01T06:00:21.983Z,97958.76
2018-07-01T06:02:51.293Z,97960.55
2018-07-01T06:05:20.423Z,97961.91
2018-07-01T06:07:49.265Z,97955.55
2018-07-01T06:10:18.888Z,97951.13
2018-07-01T06:12:48.172Z,97951.78
2018-07-01T06:15:17.294Z,97954.11
2018-07-01T06:17:47.224Z,97955.74
2018-07-01T06:20:16.060Z,97951.89
2018-07-01T06:22:45.575Z,97948.82
2018-07-01T06:25:15.331Z,97956.43
2018-07-01T06:27:44.544Z,97957.34
2018-07-01T06:30:13.549Z,97954.66
2018-07-01T06:32:42.554Z,97959.26
2018-07-01T06:35:11.464Z,97956.72
2018-07-01T06:37:40.617Z,97954.25
2018-07-01T06:40:09.566Z,97962.27
2018-07-01T06:42:38.440Z,97961.27
2018-07-01T06:45:09.191Z,97962.75
2018-07-01T06:47:38.150Z,97962.66
2018-07-01T06:50:06.815Z,97967.23
2018-07-01T06:52:35.715Z,97960.82
2018-07-01T06:55:04.560Z,97971.08
2018-07-01T06:57:34.594Z,97971.43
2018-07-01T07:00:03.526Z,97969.95
2018-07-01T07:02:32.261Z,97966.11
2018-07-01T07:05:00.921Z,97966.78
2018-07-01T07:07:29.992Z,97967.22
2018-07-01T07:09:59.411Z,97965.97
2018-07-01T07:12:28.572Z,97964.54
2018-07-01T07:14:57.721Z,97969.24
2018-07-01T07:17:26.299Z,97973.34
2018-07-01T07:19:55.092Z,97973.20
2018-07-01T07:22:24.334Z,97974.78
2018-07-01T07:24:53.210Z,97973.73
2018-07-01T07:27:21.873Z,97973.03
2018-07-01T07:29:50.726Z,97966.90
2018-07-01T07:32:20.451Z,97974.88
2018-07-01T07:34:49.562Z,97974.86
2018-07-01T07:37:18.733Z,97979.92
2018-07-01T07:39:47.607Z,97981.16
2018-07-01T07:42:16.455Z,97981.75
2018-07-01T07:44:45.500Z,97982.16
2018-07-01T07:47:14.286Z,97974.43
2018-07-01T07:49:42.994Z,97977.41
2018-07-01T07:52:12.174Z,97980.44
2018-07-01T07:54:41.041Z,97980.67
2018-07-01T07:57:09.680Z,97985.39
2018-07-01T07:59:38.484Z,97979.50
2018-07-01T08:02:07.240Z,97984.66
2018-07-01T08:04:36.325Z,97982.67
2018-07-01T08:07:05.848Z,97974.11
2018-07-01T08:09:34.780Z,97970.83
2018-07-01T08:12:03.906Z,97971.77
2018-07-01T08:14:33.186Z,97972.81
2018-07-01T08:17:02.154Z,97970.38
2018-07-01T08:19:31.686Z,97974.17
2018-07-01T08:22:00.769Z,97974.02
2018-07-01T08:24:29.489Z,97975.13
2018-07-01T08:26:58.366Z,97976.66
2018-07-01T08:29:28.545Z,97978.52
2018-07-01T08:31:57.712Z,97975.58
2018-07-01T08:34:26.500Z,97974.61
2018-07-01T08:36:55.505Z,97970.85
2018-07-01T08:39:24.260Z,97972.72
2018-07-01T08:42:31.066Z,97964.20
2018-07-01T08:45:01.176Z,97978.30
2018-07-01T08:47:31.991Z,97971.95
2018-07-01T08:50:01.360Z,97969.42
2018-07-01T08:52:30.446Z,97968.38
2018-07-01T08:54:59.429Z,97974.01
2018-07-01T08:57:28.386Z,97975.36
2018-07-01T08:59:57.315Z,97968.22
2018-07-01T09:02:26.399Z,97969.23
2018-07-01T09:04:55.532Z,97975.91
2018-07-01T09:07:24.653Z,97964.19
2018-07-01T09:09:54.055Z,97963.94
2018-07-01T09:12:22.922Z,97967.11
2018-07-01T09:14:52.562Z,97964.73
2018-07-01T09:17:21.764Z,97958.36
2018-07-01T09:19:50.616Z,97960.02
2018-07-01T09:22:19.321Z,97971.44
2018-07-01T09:24:48.171Z,97968.33
2018-07-01T09:27:16.785Z,97961.55
2018-07-01T09:29:50.749Z,97966.86
2018-07-01T09:32:19.932Z,97963.44
2018-07-01T09:34:49.220Z,97975.20
2018-07-01T09:37:18.431Z,97981.44
2018-07-01T09:39:47.328Z,97985.03
2018-07-01T09:42:16.170Z,97972.19
2018-07-01T09:44:45.142Z,97981.63
2018-07-01T09:47:14.072Z,97980.36
2018-07-01T09:49:42.806Z,97982.55
2018-07-01T09:52:11.833Z,97974.73
2018-07-01T09:54:41.091Z,97975.86
2018-07-01T09:57:09.811Z,97972.91
2018-07-01T09:59:38.562Z,97979.35
2018-07-01T10:02:07.716Z,97982.84
2018-07-01T10:04:37.072Z,97974.81
2018-07-01T10:07:06.536Z,97973.11
2018-07-01T10:09:35.712Z,97974.86
2018-07-01T10:12:04.658Z,97973.62
2018-07-01T10:14:33.875Z,97972.48
2018-07-01T10:17:03.077Z,97971.11
2018-07-01T10:19:32.180Z,97963.32
2018-07-01T10:22:00.812Z,97965.27
2018-07-01T10:24:30.407Z,97966.33
2018-07-01T10:26:59.911Z,97960.88
2018-07-01T10:29:29.019Z,97964.83
2018-07-01T10:31:58.495Z,97958.93
2018-07-01T10:34:27.648Z,97954.79
2018-07-01T10:36:56.493Z,97963.68
2018-07-01T10:39:26.273Z,97964.82
2018-07-01T10:41:55.243Z,97960.03
2018-07-01T10:44:24.636Z,97957.41
2018-07-01T10:46:53.396Z,97953.42
2018-07-01T10:49:22.967Z,97953.75
2018-07-01T10:51:52.252Z,97954.66
2018-07-01T10:54:21.092Z,97941.43
2018-07-01T10:56:49.832Z,97940.03
2018-07-01T10:59:18.987Z,97943.11
2018-07-01T11:01:47.934Z,97944.38
2018-07-01T11:04:16.681Z,97937.88
2018-07-01T11:06:45.665Z,97929.58
2018-07-01T11:09:14.852Z,97933.43
2018-07-01T11:11:44.009Z,97924.67
2018-07-01T11:14:13.474Z,97915.75
2018-07-01T11:16:42.311Z,97915.06
2018-07-01T11:19:11.800Z,97920.38
2018-07-01T11:21:40.999Z,97915.78
2018-07-01T11:24:10.376Z,97914.47
2018-07-01T11:26:40.561Z,97911.02
2018-07-01T11:29:09.461Z,97903.09
2018-07-01T11:31:38.389Z,97913.40
2018-07-01T11:34:07.262Z,97909.90
2018-07-01T11:36:36.217Z,97902.91
2018-07-01T11:39:07.618Z,97906.27
2018-07-01T11:41:36.764Z,97901.09
2018-07-01T11:44:05.477Z,97901.34
2018-07-01T11:46:34.168Z,97905.57
2018-07-01T11:49:03.420Z,97900.78
2018-07-01T11:51:32.200Z,97903.92
2018-07-01T11:54:01.025Z,97897.33
2018-07-01T11:56:31.093Z,97903.56
2018-07-01T11:58:59.816Z,97888.68
2018-07-01T12:01:28.653Z,97891.02
2018-07-01T12:03:57.605Z,97892.41
2018-07-01T12:06:26.520Z,97885.91
2018-07-01T12:08:55.252Z,97893.94
2018-07-01T12:11:24.051Z,97878.70
2018-07-01T12:13:52.818Z,97880.67
2018-07-01T12:16:21.846Z,97873.91
2018-07-01T12:18:51.088Z,97867.94
2018-07-01T12:21:19.931Z,97878.60
2018-07-01T12:23:49.211Z,97877.81
2018-07-01T12:26:18.502Z,97874.94
2018-07-01T12:28:47.680Z,97878.74
2018-07-01T12:31:16.327Z,97879.88
2018-07-01T12:33:45.407Z,97873.70
2018-07-01T12:36:14.248Z,97872.13
2018-07-01T12:38:43.042Z,97877.73
2018-07-01T12:41:12.057Z,97868.09
2018-07-01T12:43:41.298Z,97861.98
2018-07-01T12:46:10.756Z,97858.59
2018-07-01T12:48:39.575Z,97852.25
2018-07-01T12:51:08.231Z,97856.09
2018-07-01T12:53:37.353Z,97848.69
2018-07-01T12:56:06.312Z,97844.83
2018-07-01T12:58:35.051Z,97842.05
2018-07-01T13:01:04.482Z,97845.30
2018-07-01T13:03:34.128Z,97845.42
2018-07-01T13:06:03.332Z,97849.61
2018-07-01T13:08:32.250Z,97844.83
2018-07-01T13:11:01.531Z,97838.91
2018-07-01T13:13:30.242Z,97842.64
2018-07-01T13:15:59.155Z,97842.80
2018-07-01T13:18:28.309Z,97833.23
2018-07-01T13:20:58.012Z,97828.29
2018-07-01T13:23:26.906Z,97831.07
2018-07-01T13:25:55.745Z,97825.41
2018-07-01T13:28:24.759Z,97828.23
2018-07-01T13:30:53.590Z,97829.40
2018-07-01T13:33:22.825Z,97823.04
2018-07-01T13:35:51.927Z,97822.64
2018-07-01T13:38:20.684Z,97821.20
2018-07-01T13:40:49.453Z,97821.46
2018-07-01T13:43:18.311Z,97825.21
2018-07-01T13:45:47.116Z,97822.61
2018-07-01T13:48:15.821Z,97814.42
2018-07-01T13:50:45.691Z,97822.52
2018-07-01T13:53:15.458Z,97818.50
2018-07-01T13:55:44.763Z,97804.07
2018-07-01T13:58:14.371Z,97811.92
2018-07-01T14:00:43.370Z,97808.44
2018-07-01T14:03:12.497Z,97815.56
2018-07-01T14:05:41.692Z,97809.50
2018-07-01T14:08:10.907Z,97807.18
2018-07-01T14:10:39.547Z,97813.27
2018-07-01T14:13:08.391Z,97811.05
2018-07-01T14:15:37.388Z,97805.56
2018-07-01T14:18:06.974Z,97802.28
2018-07-01T14:20:36.042Z,97801.02
2018-07-01T14:23:05.238Z,97798.28
2018-07-01T14:25:34.726Z,97802.01
2018-07-01T14:28:03.762Z,97796.89
2018-07-01T14:30:32.893Z,97791.02
2018-07-01T14:33:01.632Z,97794.79
2018-07-01T14:35:30.445Z,97796.33
2018-07-01T14:37:59.594Z,97791.10
2018-07-01T14:40:28.492Z,97784.66
2018-07-01T14:42:57.382Z,97791.98
2018-07-01T14:45:26.341Z,97786.85
2018-07-01T14:47:55.163Z,97788.16
2018-07-01T14:50:24.479Z,97784.36
2018-07-01T14:52:53.646Z,97788.60
2018-07-01T14:55:22.311Z,97788.23
2018-07-01T14:57:51.034Z,97785.70
2018-07-01T15:00:20.008Z,97780.48
2018-07-01T15:02:49.009Z,97781.67
2018-07-01T15:05:18.067Z,97776.61
2018-07-01T15:07:47.544Z,97781.63
2018-07-01T15:10:16.407Z,97772.23
2018-07-01T15:12:45.881Z,97777.03
2018-07-01T15:15:15.018Z,97774.08
2018-07-01T15:17:43.916Z,97780.33
2018-07-01T15:20:12.611Z,97770.27
2018-07-01T15:22:41.377Z,97773.70
2018-07-01T15:25:10.973Z,97778.95
2018-07-01T15:27:39.842Z,97777.77
2018-07-01T15:30:09.669Z,97778.68
2018-07-01T15:32:38.588Z,97776.09
2018-07-01T15:35:07.449Z,97773.58
2018-07-01T15:37:38.698Z,97770.85
2018-07-01T15:40:07.918Z,97765.95
2018-07-01T15:42:36.733Z,97758.53
2018-07-01T15:45:07.347Z,97773.42
2018-07-01T15:47:36.263Z,97764.98
2018-07-01T15:50:05.090Z,97763.36
2018-07-01T15:52:34.049Z,97750.93
2018-07-01T15:55:02.900Z,97753.48
2018-07-01T15:57:31.633Z,97754.72
2018-07-01T16:00:00.496Z,97752.58
2018-07-01T16:02:29.420Z,97750.02
2018-07-01T16:04:58.350Z,97743.14
2018-07-01T16:07:27.131Z,97749.89
2018-07-01T16:09:56.037Z,97757.41
2018-07-01T16:12:25.194Z,97747.88
2018-07-01T16:14:54.114Z,97755.23
2018-07-01T16:17:23.477Z,97752.66
2018-07-01T16:19:52.974Z,97751.91
2018-07-01T16:22:22.196Z,97757.28
2018-07-01T16:24:56.195Z,97752.71
2018-07-01T16:27:28.021Z,97759.85
2018-07-01T16:29:56.952Z,97753.17
2018-07-01T16:32:25.821Z,97751.20
2018-07-01T16:34:55.088Z,97753.56
2018-07-01T16:37:23.892Z,97754.80
2018-07-01T16:39:53.385Z,97758.34
2018-07-01T16:42:22.889Z,97756.23
2018-07-01T16:44:51.963Z,97755.23
2018-07-01T16:47:20.784Z,97757.45
2018-07-01T16:49:49.543Z,97759.45
2018-07-01T16:52:18.872Z,97758.91
2018-07-01T16:54:47.880Z,97763.23
2018-07-01T16:57:16.719Z,97763.03
2018-07-01T16:59:45.942Z,97760.70
2018-07-01T17:02:14.818Z,97763.33
2018-07-01T17:04:44.699Z,97760.97
2018-07-01T17:07:13.879Z,97761.73
2018-07-01T17:09:43.109Z,97764.74
2018-07-01T17:12:11.839Z,97763.36
2018-07-01T17:14:40.518Z,97767.33
2018-07-01T17:17:09.434Z,97768.73
2018-07-01T17:19:38.149Z,97763.44
2018-07-01T17:22:07.247Z,97765.23
2018-07-01T17:24:36.502Z,97766.64
2018-07-01T17:27:05.612Z,97763.48
2018-07-01T17:29:34.329Z,97763.12
2018-07-01T17:32:08.252Z,97762.72
2018-07-01T17:34:36.960Z,97768.66
2018-07-01T17:37:06.675Z,97767.28
2018-07-01T17:39:35.718Z,97774.20
2018-07-01T17:42:05.955Z,97773.24
2018-07-01T17:44:35.001Z,97769.28
2018-07-01T17:47:04.090Z,97773.86
2018-07-01T17:49:33.589Z,97769.70
2018-07-01T17:52:03.234Z,97772.88
2018-07-01T17:54:32.113Z,97775.63
2018-07-01T17:57:01.250Z,97774.86
2018-07-01T17:59:30.263Z,97775.06
2018-07-01T18:01:59.053Z,97767.95
2018-07-01T18:04:27.934Z,97774.27
2018-07-01T18:06:57.239Z,97780.56
2018-07-01T18:09:26.283Z,97789.24
2018-07-01T18:11:55.723Z,97784.31
2018-07-01T18:14:24.513Z,97784.30
2018-07-01T18:16:53.211Z,97785.09
2018-07-01T18:19:21.957Z,97788.23
2018-07-01T18:22:21.724Z,97784.86
2018-07-01T18:24:48.924Z,97780.49
2018-07-01T18:26:50.008Z,97786.81
2018-07-01T18:29:20.352Z,97789.73
2018-07-01T18:31:48.413Z,97793.23
2018-07-01T18:34:17.738Z,97792.22
2018-07-01T18:36:46.912Z,97791.78
2018-07-01T18:39:15.468Z,97801.44
2018-07-01T18:41:44.494Z,97792.55
2018-07-01T18:44:13.563Z,97795.66
2018-07-01T18:46:42.762Z,97800.52
2018-07-01T18:49:11.914Z,97794.19
2018-07-01T18:51:41.075Z,97789.78
2018-07-01T18:54:09.892Z,97800.73
2018-07-01T18:56:38.725Z,97801.28
2018-07-01T18:59:08.084Z,97794.91
2018-07-01T19:01:36.850Z,97803.29
2018-07-01T19:04:05.866Z,97798.50
2018-07-01T19:06:34.580Z,97808.66
2018-07-01T19:09:03.758Z,97804.66
2018-07-01T19:11:33.184Z,97807.69
2018-07-01T19:14:02.283Z,97806.93
2018-07-01T19:16:31.835Z,97810.72
2018-07-01T19:19:00.669Z,97809.97
2018-07-01T19:21:29.943Z,97812.78
2018-07-01T19:23:59.485Z,97816.21
2018-07-01T19:26:28.490Z,97820.22
2018-07-01T19:28:57.608Z,97824.30
2018-07-01T19:31:26.451Z,97824.94
2018-07-01T19:33:55.282Z,97821.37
2018-07-01T19:36:24.347Z,97822.75
2018-07-01T19:38:53.368Z,97827.94
2018-07-01T19:41:22.769Z,97830.34
2018-07-01T19:43:51.617Z,97831.66
2018-07-01T19:46:20.484Z,97836.53
2018-07-01T19:48:49.432Z,97836.13
2018-07-01T19:51:18.619Z,97839.22
2018-07-01T19:53:47.641Z,97842.92
2018-07-01T19:56:16.524Z,97847.05
2018-07-01T19:58:45.440Z,97846.05
2018-07-01T20:01:14.848Z,97846.14
2018-07-01T20:03:43.833Z,97855.97
2018-07-01T20:06:13.017Z,97845.90
2018-07-01T20:08:42.173Z,97855.81
2018-07-01T20:11:11.506Z,97856.59
2018-07-01T20:13:40.423Z,97859.55
2018-07-01T20:16:10.104Z,97854.48
2018-07-01T20:18:39.163Z,97860.30
2018-07-01T20:21:08.255Z,97859.37
2018-07-01T20:23:37.764Z,97858.59
2018-07-01T20:26:06.729Z,97859.67
2018-07-01T20:28:36.011Z,97862.50
2018-07-01T20:31:05.708Z,97862.06
2018-07-01T20:33:34.504Z,97860.25
2018-07-01T20:36:03.852Z,97863.52
2018-07-01T20:38:32.900Z,97867.80
2018-07-01T20:41:02.215Z,97862.95
2018-07-01T20:43:32.376Z,97866.55
2018-07-01T20:46:01.438Z,97867.44
2018-07-01T20:48:30.934Z,97866.77
2018-07-01T20:50:59.942Z,97866.77
2018-07-01T20:53:29.715Z,97859.58
2018-07-01T20:55:58.516Z,97860.33
2018-07-01T20:58:27.271Z,97870.42
2018-07-01T21:00:56.864Z,97869.01
2018-07-01T21:03:27.387Z,97867.66
2018-07-01T21:05:56.437Z,97861.77
2018-07-01T21:08:25.920Z,97868.60
2018-07-01T21:10:54.721Z,97867.23
2018-07-01T21:13:23.619Z,97868.16
2018-07-01T21:15:53.351Z,97863.59
2018-07-01T21:18:22.037Z,97860.19
2018-07-01T21:20:50.680Z,97864.25
2018-07-01T21:23:19.521Z,97868.80
2018-07-01T21:25:48.341Z,97861.98
2018-07-01T21:28:18.486Z,97866.73
2018-07-01T21:30:47.638Z,97870.61
2018-07-01T21:33:16.314Z,97870.81
2018-07-01T21:35:45.292Z,97869.30
2018-07-01T21:38:14.575Z,97868.64
2018-07-01T21:40:43.615Z,97870.20
2018-07-01T21:43:12.898Z,97866.66
2018-07-01T21:45:41.949Z,97864.73
2018-07-01T21:48:10.731Z,97866.73
2018-07-01T21:50:39.370Z,97865.63
2018-07-01T21:53:08.223Z,97868.33
2018-07-01T21:55:37.897Z,97866.55
2018-07-01T21:58:07.184Z,97873.67
2018-07-01T22:00:36.672Z,97870.78
2018-07-01T22:03:06.635Z,97876.72
2018-07-01T22:05:35.686Z,97878.70
2018-07-01T22:08:04.338Z,97882.10
2018-07-01T22:11:42.963Z,97887.23
2018-07-01T22:14:20.705Z,97879.89
2018-07-01T22:16:49.553Z,97888.66
2018-07-01T22:19:19.235Z,97885.99
2018-07-01T22:21:49.409Z,97892.58
2018-07-01T22:24:18.268Z,97884.29
2018-07-01T22:26:47.011Z,97879.02
2018-07-01T22:29:16.696Z,97882.59
2018-07-01T22:31:45.861Z,97882.33
2018-07-01T22:34:16.035Z,97885.72
2018-07-01T22:36:45.828Z,97880.45
2018-07-01T22:39:22.104Z,97882.47
2018-07-01T22:41:51.550Z,97876.48
2018-07-01T22:44:20.799Z,97875.54
2018-07-01T22:46:50.288Z,97878.34
2018-07-01T22:49:19.183Z,97884.74
2018-07-01T22:51:47.979Z,97880.95
2018-07-01T22:54:16.830Z,97880.38
2018-07-01T22:56:45.563Z,97884.08
2018-07-01T22:59:15.117Z,97883.70
2018-07-01T23:01:55.666Z,97880.81
2018-07-01T23:04:24.393Z,97880.81
2018-07-01T23:06:53.304Z,97879.05
2018-07-01T23:09:21.918Z,97881.07
2018-07-01T23:11:50.489Z,97882.98
2018-07-01T23:14:19.214Z,97875.69
2018-07-01T23:16:48.539Z,97872.72
2018-07-01T23:19:17.289Z,97878.23
2018-07-01T23:21:46.083Z,97880.47
2018-07-01T23:24:15.289Z,97877.05
2018-07-01T23:26:43.978Z,97873.45
2018-07-01T23:29:12.591Z,97880.72
2018-07-01T23:31:42.062Z,97875.76
2018-07-01T23:34:11.139Z,97874.87
2018-07-01T23:36:40.234Z,97873.81
2018-07-01T23:39:09.129Z,97871.42
2018-07-01T23:41:37.876Z,97874.94
2018-07-01T23:44:07.020Z,97876.11
2018-07-01T23:46:36.304Z,97870.86
2018-07-01T23:49:05.140Z,97876.82
2018-07-01T23:51:33.987Z,97870.18
2018-07-01T23:54:02.840Z,97866.98
2018-07-01T23:56:31.499Z,97871.38
2018-07-01T23:59:00.377Z,97868.73
